Station History

Weather Underground - logo

Station Historical Data
Daily Summary for July 10, 2017 Units:  English    Metric   Both
« Previous Day
Next Day »
Daily Weekly Monthly Yearly Custom
  High: Low: Average:
Temperature: TemperatureF °F 73.9 °F 88.1 °F
Dew Point: DewpointF °F 54.1 °F 64.1 °F
Humidity: Humidity % 20 % 48 %
Wind Speed: WindSpeedMPH mph 0.0 mph 1 mph
Wind Gust: WindSpeedGustMPH mph - -
Wind:- - SSW
Pressure: PressureIn in 29.69 in -
Precipitation: 0.00 in    
Historical Graphs
 
 
Tabular Data for July 10, 2017
Time Temperature Dew Point Pressure Wind Wind Speed Wind Gust Humidity Rainfall Rate (Hourly)
TemperatureF °F DewpointF °F PressureIn in Calm     Humidity % HourlyPrecipIn in
00:04 79.0 °F 64.9 °F 29.78 in Calm     62 % 0.00 in
00:09 78.9 °F 65.2 °F 29.78 in Calm     63 % 0.00 in
00:14 79.0 °F 65.3 °F 29.78 in Calm     63 % 0.00 in
00:19 79.0 °F 64.9 °F 29.78 in Calm     62 % 0.00 in
00:24 79.2 °F 63.6 °F 29.78 in Calm     59 % 0.00 in
00:29 79.7 °F 64.6 °F 29.77 in Calm     60 % 0.00 in
00:34 79.7 °F 64.1 °F 29.77 in Calm     59 % 0.00 in
00:39 79.7 °F 64.1 °F 29.77 in Calm     59 % 0.00 in
00:44 79.6 °F 65.4 °F 29.77 in Calm     62 % 0.00 in
00:49 79.2 °F 64.6 °F 29.77 in Calm     61 % 0.00 in
00:54 79.2 °F 63.1 °F 29.77 in Calm     58 % 0.00 in
00:59 79.0 °F 63.0 °F 29.77 in Calm     58 % 0.00 in
01:04 78.9 °F 63.4 °F 29.77 in Calm     59 % 0.00 in
01:10 78.6 °F 63.6 °F 29.77 in Calm     60 % 0.00 in
01:15 78.2 °F 63.2 °F 29.77 in Calm     60 % 0.00 in
01:20 78.1 °F 62.6 °F 29.77 in Calm     59 % 0.00 in
01:25 78.0 °F 62.5 °F 29.77 in Calm     59 % 0.00 in
01:30 77.9 °F 62.4 °F 29.77 in Calm     59 % 0.00 in
01:35 77.9 °F 63.4 °F 29.77 in Calm     61 % 0.00 in
01:40 77.8 °F 62.3 °F 29.77 in Calm     59 % 0.00 in
01:45 77.7 °F 63.2 °F 29.77 in Calm     61 % 0.00 in
01:50 78.0 °F 62.0 °F 29.77 in SE 1.2 mph   58 % 0.00 in
01:55 78.2 °F 62.2 °F 29.77 in Calm     58 % 0.00 in
02:00 78.1 °F 62.6 °F 29.77 in Calm     59 % 0.00 in
02:05 78.0 °F 61.0 °F 29.77 in Calm     56 % 0.00 in
02:10 77.9 °F 61.4 °F 29.77 in Calm     57 % 0.00 in
02:15 77.7 °F 61.7 °F 29.77 in Calm     58 % 0.00 in
02:20 77.5 °F 62.5 °F 29.77 in Calm     60 % 0.00 in
02:25 77.5 °F 63.5 °F 29.77 in Calm     62 % 0.00 in
02:30 77.4 °F 62.9 °F 29.77 in Calm     61 % 0.00 in
02:35 77.3 °F 63.3 °F 29.77 in Calm     62 % 0.00 in
02:40 77.3 °F 64.2 °F 29.77 in Calm     64 % 0.00 in
02:45 77.2 °F 63.6 °F 29.77 in Calm     63 % 0.00 in
02:50 77.2 °F 65.4 °F 29.77 in Calm     67 % 0.00 in
02:55 76.5 °F 64.7 °F 29.77 in Calm     67 % 0.00 in
03:00 75.9 °F 65.0 °F 29.76 in Calm     69 % 0.00 in
03:05 75.7 °F 65.6 °F 29.76 in Calm     71 % 0.00 in
03:10 75.6 °F 65.5 °F 29.76 in Calm     71 % 0.00 in
03:15 75.5 °F 64.6 °F 29.77 in Calm     69 % 0.00 in
03:20 75.8 °F 65.7 °F 29.77 in Calm     71 % 0.00 in
03:25 76.1 °F 64.8 °F 29.76 in Calm     68 % 0.00 in
03:30 76.4 °F 65.5 °F 29.76 in Calm     69 % 0.00 in
03:35 76.4 °F 64.6 °F 29.76 in Calm     67 % 0.00 in
03:41 76.4 °F 64.2 °F 29.76 in Calm     66 % 0.00 in
03:46 76.3 °F 64.1 °F 29.76 in Calm     66 % 0.00 in
03:51 76.2 °F 64.0 °F 29.76 in Calm     66 % 0.00 in
03:56 76.2 °F 64.0 °F 29.76 in Calm     66 % 0.00 in
04:01 76.4 °F 65.1 °F 29.76 in Calm     68 % 0.00 in
04:06 76.5 °F 64.7 °F 29.76 in Calm     67 % 0.00 in
04:07 76.4 °F 64.2 °F 29.76 in Calm     66 % 0.00 in
04:12 76.3 °F 64.1 °F 29.76 in Calm     66 % 0.00 in
04:17 76.4 °F 64.6 °F 29.76 in Calm     67 % 0.00 in
04:22 76.4 °F 64.2 °F 29.77 in Calm     66 % 0.00 in
04:27 76.4 °F 63.3 °F 29.77 in Calm     64 % 0.00 in
04:32 76.5 °F 63.4 °F 29.77 in Calm     64 % 0.00 in
04:37 76.5 °F 64.7 °F 29.77 in Calm     67 % 0.00 in
04:42 76.4 °F 64.2 °F 29.77 in Calm     66 % 0.00 in
04:47 76.3 °F 64.1 °F 29.77 in Calm     66 % 0.00 in
04:52 76.1 °F 63.5 °F 29.77 in Calm     65 % 0.00 in
04:57 75.9 °F 65.0 °F 29.77 in Calm     69 % 0.00 in
05:02 75.7 °F 64.4 °F 29.77 in Calm     68 % 0.00 in
05:07 75.5 °F 64.6 °F 29.77 in Calm     69 % 0.00 in
05:12 75.3 °F 64.8 °F 29.77 in Calm     70 % 0.00 in
05:17 75.1 °F 65.1 °F 29.77 in Calm     71 % 0.00 in
05:22 74.8 °F 63.5 °F 29.78 in Calm     68 % 0.00 in
05:27 74.8 °F 63.9 °F 29.78 in Calm     69 % 0.00 in
05:32 74.7 °F 64.3 °F 29.78 in South 1.2 mph 1.2 mph 70 % 0.00 in
05:37 74.4 °F 64.4 °F 29.78 in Calm     71 % 0.00 in
05:42 74.2 °F 64.2 °F 29.78 in Calm     71 % 0.00 in
05:47 74.0 °F 64.0 °F 29.78 in Calm     71 % 0.00 in
05:52 73.9 °F 63.5 °F 29.78 in Calm     70 % 0.00 in
05:57 74.0 °F 62.8 °F 29.78 in Calm     68 % 0.00 in
06:02 74.1 °F 62.9 °F 29.78 in Calm     68 % 0.00 in
06:07 74.2 °F 63.4 °F 29.78 in Calm     69 % 0.00 in
06:12 74.4 °F 63.1 °F 29.78 in Calm     68 % 0.00 in
06:17 74.5 °F 62.8 °F 29.78 in Calm     67 % 0.00 in
06:22 74.8 °F 63.1 °F 29.78 in Calm     67 % 0.00 in
06:27 74.9 °F 62.8 °F 29.78 in Calm     66 % 0.00 in
06:32 75.1 °F 63.0 °F 29.79 in Calm     66 % 0.00 in
06:37 75.2 °F 63.1 °F 29.79 in Calm     66 % 0.00 in
06:42 75.4 °F 62.4 °F 29.79 in Calm     64 % 0.00 in
06:47 75.7 °F 62.2 °F 29.79 in SE 1.2 mph 1.2 mph 63 % 0.00 in
06:52 76.2 °F 62.2 °F 29.79 in Calm     62 % 0.00 in
06:57 76.8 °F 63.2 °F 29.79 in Calm     63 % 0.00 in
07:02 77.3 °F 62.8 °F 29.79 in SE 1.2 mph   61 % 0.00 in
07:07 78.0 °F 63.0 °F 29.79 in Calm     60 % 0.00 in
07:12 78.8 °F 63.3 °F 29.80 in Calm     59 % 0.00 in
07:17 79.4 °F 62.8 °F 29.80 in SE 1.2 mph 1.2 mph 57 % 0.00 in
07:22 80.0 °F 62.9 °F 29.80 in SSE 1.2 mph 1.2 mph 56 % 0.00 in
07:27 80.4 °F 62.8 °F 29.80 in Calm     55 % 0.00 in
07:32 80.8 °F 63.1 °F 29.80 in Calm     55 % 0.00 in
07:38 81.3 °F 63.6 °F 29.80 in Calm     55 % 0.00 in
07:43 81.9 °F 64.1 °F 29.80 in Calm     55 % 0.00 in
07:48 82.3 °F 63.5 °F 29.80 in Calm     53 % 0.00 in
07:53 82.7 °F 63.3 °F 29.81 in SE 1.2 mph 1.2 mph 52 % 0.00 in
07:58 83.1 °F 63.1 °F 29.81 in SE 2.3 mph 2.3 mph 51 % 0.00 in
08:03 83.7 °F 63.7 °F 29.81 in SSE 2.3 mph 2.3 mph 51 % 0.00 in
08:08 84.1 °F 62.9 °F 29.81 in SSE 2.3 mph 2.3 mph 49 % 0.00 in
08:13 84.3 °F 62.5 °F 29.81 in ESE 2.3 mph 2.3 mph 48 % 0.00 in
08:18 84.4 °F 62.6 °F 29.81 in SSE 3.5 mph 3.5 mph 48 % 0.00 in
08:23 84.7 °F 62.8 °F 29.82 in South 1.2 mph 1.2 mph 48 % 0.00 in
08:28 85.1 °F 63.8 °F 29.82 in SSE 1.2 mph   49 % 0.00 in
08:33 85.7 °F 63.1 °F 29.82 in SSE 2.3 mph 2.3 mph 47 % 0.00 in
08:38 85.7 °F 62.5 °F 29.82 in NW 1.2 mph 1.2 mph 46 % 0.00 in
08:43 85.9 °F 62.7 °F 29.82 in SSE 3.5 mph 3.5 mph 46 % 0.00 in
08:48 86.2 °F 63.0 °F 29.82 in SE 3.5 mph 3.5 mph 46 % 0.00 in
08:53 86.7 °F 63.4 °F 29.82 in East 2.3 mph 2.3 mph 46 % 0.00 in
08:58 87.2 °F 62.6 °F 29.82 in SSW 3.5 mph 3.5 mph 44 % 0.00 in
09:03 87.9 °F 62.6 °F 29.82 in SE 2.3 mph 2.3 mph 43 % 0.00 in
09:08 88.4 °F 63.1 °F 29.82 in SSE 2.3 mph 2.3 mph 43 % 0.00 in
09:13 88.3 °F 63.6 °F 29.82 in SSE 2.3 mph 2.3 mph 44 % 0.00 in
09:18 88.2 °F 62.9 °F 29.82 in SE 2.3 mph 2.3 mph 43 % 0.00 in
09:23 88.3 °F 63.0 °F 29.82 in SSE 3.0 mph 3.0 mph 43 % 0.00 in
09:28 88.3 °F 63.0 °F 29.82 in SE 3.5 mph 3.5 mph 43 % 0.00 in
09:33 89.0 °F 62.9 °F 29.82 in SSE 4.6 mph 4.6 mph 42 % 0.00 in
09:38 89.5 °F 62.7 °F 29.82 in SSE 4.6 mph 4.6 mph 41 % 0.00 in
09:43 89.9 °F 63.0 °F 29.82 in SSE 3.5 mph 3.5 mph 41 % 0.00 in
09:48 90.4 °F 63.5 °F 29.82 in North 3.5 mph 3.5 mph 41 % 0.00 in
09:53 91.0 °F 64.0 °F 29.82 in SSE 3.5 mph 3.5 mph 41 % 0.00 in
09:58 91.5 °F 63.1 °F 29.82 in South 3.5 mph 3.5 mph 39 % 0.00 in
10:03 91.5 °F 63.1 °F 29.83 in SSW 2.3 mph 2.3 mph 39 % 0.00 in
10:08 92.2 °F 64.4 °F 29.83 in SE 4.0 mph 4.0 mph 40 % 0.00 in
10:13 92.5 °F 64.7 °F 29.83 in NNW 1.2 mph 1.2 mph 40 % 0.00 in
10:18 92.4 °F 65.3 °F 29.83 in SSE 2.3 mph 2.3 mph 41 % 0.00 in
10:23 92.2 °F 67.1 °F 29.82 in SSE 2.3 mph 2.3 mph 44 % 0.00 in
10:28 92.3 °F 65.2 °F 29.82 in North 3.5 mph 3.5 mph 41 % 0.00 in
10:33 92.8 °F 65.6 °F 29.83 in NNW 1.2 mph 1.2 mph 41 % 0.00 in
10:38 93.1 °F 65.2 °F 29.83 in East 3.5 mph 3.5 mph 40 % 0.00 in
10:43 93.4 °F 64.7 °F 29.83 in SE 1.2 mph 1.2 mph 39 % 0.00 in
10:48 93.4 °F 66.2 °F 29.83 in ENE 1.2 mph 1.2 mph 41 % 0.00 in
10:53 93.4 °F 67.6 °F 29.82 in ESE 1.2 mph   43 % 0.00 in
10:58 94.0 °F 68.8 °F 29.82 in SE 1.2 mph 1.2 mph 44 % 0.00 in
11:03 94.4 °F 67.8 °F 29.82 in North 1.2 mph   42 % 0.00 in
11:08 94.6 °F 69.3 °F 29.82 in West 3.0 mph 3.0 mph 44 % 0.00 in
11:13 94.1 °F 69.5 °F 29.82 in NNE 2.0 mph 2.0 mph 45 % 0.00 in
11:18 94.3 °F 68.4 °F 29.82 in WNW 1.2 mph 1.2 mph 43 % 0.00 in
11:23 94.8 °F 69.5 °F 29.82 in Calm     44 % 0.00 in
11:28 95.7 °F 69.6 °F 29.82 in SE 2.3 mph 2.3 mph 43 % 0.00 in
11:33 95.9 °F 68.4 °F 29.82 in North 2.3 mph 2.3 mph 41 % 0.00 in
11:38 95.9 °F 69.8 °F 29.82 in SE 1.2 mph 1.2 mph 43 % 0.00 in
11:43 96.6 °F 69.7 °F 29.82 in SE 1.2 mph 1.2 mph 42 % 0.00 in
11:48 96.7 °F 66.9 °F 29.82 in North 2.3 mph 2.3 mph 38 % 0.00 in
11:53 96.6 °F 68.3 °F 29.82 in ENE 1.2 mph 1.2 mph 40 % 0.00 in
11:58 96.9 °F 66.3 °F 29.82 in NNE 2.3 mph 2.3 mph 37 % 0.00 in
12:03 96.6 °F 66.8 °F 29.82 in WNW 2.3 mph 2.3 mph 38 % 0.00 in
12:04 96.6 °F 67.6 °F 29.82 in NNW 1.2 mph 1.2 mph 39 % 0.00 in
12:09 96.8 °F 67.0 °F 29.82 in SW 1.2 mph 1.2 mph 38 % 0.00 in
12:14 97.0 °F 67.2 °F 29.82 in NW 2.0 mph 2.0 mph 38 % 0.00 in
12:19 96.6 °F 67.6 °F 29.81 in NW 2.3 mph 2.3 mph 39 % 0.00 in
12:24 96.7 °F 67.7 °F 29.81 in NNW 2.3 mph 2.3 mph 39 % 0.00 in
12:29 96.6 °F 69.7 °F 29.81 in ENE 1.2 mph 1.2 mph 42 % 0.00 in
12:34 97.5 °F 69.1 °F 29.81 in SE 3.5 mph 3.5 mph 40 % 0.00 in
12:39 98.0 °F 68.1 °F 29.81 in North 1.2 mph 1.2 mph 38 % 0.00 in
12:44 98.2 °F 65.9 °F 29.81 in North 2.3 mph 2.3 mph 35 % 0.00 in
12:49 98.1 °F 65.8 °F 29.81 in NW 2.3 mph 2.3 mph 35 % 0.00 in
12:54 98.5 °F 66.1 °F 29.80 in NW 1.2 mph 1.2 mph 35 % 0.00 in
12:59 98.9 °F 65.6 °F 29.80 in NE 3.5 mph 3.5 mph 34 % 0.00 in
13:05 99.3 °F 65.1 °F 29.80 in NNW 2.3 mph 2.3 mph 33 % 0.00 in
13:10 99.5 °F 66.2 °F 29.80 in NNW 3.5 mph 3.5 mph 34 % 0.00 in
13:15 99.4 °F 66.9 °F 29.80 in NNE 3.5 mph 3.5 mph 35 % 0.00 in
13:20 99.0 °F 65.7 °F 29.79 in WSW 1.2 mph 1.2 mph 34 % 0.00 in
13:25 99.7 °F 67.2 °F 29.79 in SE 2.3 mph 2.3 mph 35 % 0.00 in
13:30 100.4 °F 64.3 °F 29.79 in WNW 1.2 mph 1.2 mph 31 % 0.00 in
13:35 100.7 °F 68.9 °F 29.79 in SE 1.2 mph 1.2 mph 36 % 0.00 in
13:40 100.5 °F 64.4 °F 29.78 in WNW 3.5 mph 3.5 mph 31 % 0.00 in
13:45 100.6 °F 65.4 °F 29.78 in ESE 3.5 mph 3.5 mph 32 % 0.00 in
13:50 101.2 °F 63.1 °F 29.78 in North 3.5 mph 3.5 mph 29 % 0.00 in
13:55 101.2 °F 65.0 °F 29.78 in NNW 1.0 mph 1.0 mph 31 % 0.00 in
14:00 100.7 °F 63.6 °F 29.78 in WNW 2.3 mph 2.3 mph 30 % 0.00 in
14:05 99.9 °F 59.9 °F 29.77 in NNW 2.3 mph 2.3 mph 27 % 0.00 in
14:10 99.7 °F 63.7 °F 29.77 in Calm     31 % 0.00 in
14:15 99.9 °F 63.9 °F 29.77 in NW 1.2 mph 1.2 mph 31 % 0.00 in
14:20 99.4 °F 60.5 °F 29.77 in NW 2.3 mph 2.3 mph 28 % 0.00 in
14:25 99.4 °F 62.5 °F 29.77 in Calm   0.1 mph 30 % 0.00 in
14:30 99.6 °F 60.7 °F 29.77 in Calm   0.2 mph 28 % 0.00 in
14:35 100.1 °F 64.0 °F 29.76 in NNW 1.2 mph 1.2 mph 31 % 0.00 in
14:40 100.8 °F 62.7 °F 29.76 in NW 2.3 mph 2.3 mph 29 % 0.00 in
14:45 101.2 °F 61.0 °F 29.76 in NE 3.5 mph 3.5 mph 27 % 0.00 in
14:50 101.4 °F 63.2 °F 29.76 in NE 3.5 mph 3.5 mph 29 % 0.00 in
14:55 102.0 °F 60.7 °F 29.76 in NW 3.5 mph 3.5 mph 26 % 0.00 in
15:00 102.1 °F 63.8 °F 29.75 in NNW 1.2 mph 1.2 mph 29 % 0.00 in
15:05 101.7 °F 61.5 °F 29.75 in West 3.5 mph 3.5 mph 27 % 0.00 in
15:10 102.1 °F 60.7 °F 29.75 in NW 2.3 mph 2.3 mph 26 % 0.00 in
15:15 102.5 °F 61.1 °F 29.75 in NW 3.5 mph 3.5 mph 26 % 0.00 in
15:20 102.6 °F 61.2 °F 29.75 in WNW 3.5 mph 3.5 mph 26 % 0.00 in
15:25 102.6 °F 61.2 °F 29.75 in West 3.5 mph 3.5 mph 26 % 0.00 in
15:30 102.9 °F 61.4 °F 29.75 in WSW 1.2 mph 1.2 mph 26 % 0.00 in
15:35 102.9 °F 61.4 °F 29.75 in WNW 3.5 mph 3.5 mph 26 % 0.00 in
15:40 102.5 °F 58.8 °F 29.74 in NW 1.2 mph 1.7 mph 24 % 0.00 in
15:46 102.9 °F 59.2 °F 29.74 in NNW 2.3 mph 2.3 mph 24 % 0.00 in
15:51 103.4 °F 58.4 °F 29.74 in WNW 1.2 mph 1.2 mph 23 % 0.00 in
15:56 103.4 °F 59.6 °F 29.74 in West 3.0 mph 3.0 mph 24 % 0.00 in
16:01 103.4 °F 58.4 °F 29.73 in West 2.3 mph 2.3 mph 23 % 0.00 in
16:06 103.5 °F 59.7 °F 29.73 in WNW 2.3 mph 2.3 mph 24 % 0.00 in
16:11 103.1 °F 58.1 °F 29.73 in WNW 3.0 mph 3.0 mph 23 % 0.00 in
16:16 102.9 °F 55.4 °F 29.73 in NNE 4.6 mph 4.6 mph 21 % 0.00 in
16:21 102.9 °F 60.3 °F 29.73 in WSW 2.3 mph 2.3 mph 25 % 0.00 in
16:26 103.1 °F 59.3 °F 29.73 in NW 1.2 mph 1.2 mph 24 % 0.00 in
16:31 103.3 °F 59.5 °F 29.73 in NW 2.3 mph 2.3 mph 24 % 0.00 in
16:36 103.2 °F 58.2 °F 29.72 in West 2.3 mph 2.3 mph 23 % 0.00 in
16:41 102.9 °F 54.1 °F 29.72 in WSW 1.2 mph 1.2 mph 20 % 0.00 in
16:46 103.5 °F 59.7 °F 29.72 in WNW 2.3 mph 2.3 mph 24 % 0.00 in
16:51 103.8 °F 57.5 °F 29.72 in NW 2.3 mph 2.3 mph 22 % 0.00 in
16:56 103.5 °F 59.7 °F 29.71 in West 2.3 mph 2.3 mph 24 % 0.00 in
17:01 103.6 °F 58.6 °F 29.71 in SW 2.3 mph 2.3 mph 23 % 0.00 in
17:06 103.5 °F 59.7 °F 29.71 in SW 1.2 mph 1.2 mph 24 % 0.00 in
17:11 103.6 °F 59.7 °F 29.71 in NW 1.2 mph 1.2 mph 24 % 0.00 in
17:16 104.0 °F 60.1 °F 29.71 in NNW 1.2 mph 1.2 mph 24 % 0.00 in
17:21 103.9 °F 62.3 °F 29.71 in NNE 2.3 mph 2.3 mph 26 % 0.00 in
17:26 103.3 °F 59.5 °F 29.70 in North 2.3 mph 2.3 mph 24 % 0.00 in
17:31 103.1 °F 60.5 °F 29.70 in NW 1.2 mph 1.2 mph 25 % 0.00 in
17:36 103.1 °F 61.6 °F 29.70 in North 2.0 mph 2.0 mph 26 % 0.00 in
17:41 103.0 °F 60.4 °F 29.70 in West 2.3 mph 2.3 mph 25 % 0.00 in
17:46 102.9 °F 61.4 °F 29.70 in WSW 1.0 mph 1.0 mph 26 % 0.00 in
17:51 103.0 °F 60.4 °F 29.70 in NNW 1.2 mph 1.2 mph 25 % 0.00 in
17:56 102.8 °F 61.3 °F 29.70 in WNW 1.2 mph 1.2 mph 26 % 0.00 in
18:01 102.6 °F 61.2 °F 29.70 in ENE 1.2 mph   26 % 0.00 in
18:06 102.4 °F 63.1 °F 29.70 in NNW 1.2 mph 1.2 mph 28 % 0.00 in
18:11 101.9 °F 62.7 °F 29.69 in NW 1.2 mph 1.2 mph 28 % 0.00 in
18:16 101.8 °F 64.6 °F 29.70 in Calm     30 % 0.00 in
18:21 101.9 °F 64.6 °F 29.70 in Calm     30 % 0.00 in
18:27 101.8 °F 64.6 °F 29.70 in Calm     30 % 0.00 in
18:32 101.7 °F 66.3 °F 29.70 in ESE 1.2 mph   32 % 0.00 in
18:37 101.5 °F 65.2 °F 29.70 in Calm     31 % 0.00 in
18:42 101.1 °F 65.8 °F 29.70 in Calm     32 % 0.00 in
18:47 100.5 °F 64.4 °F 29.70 in Calm     31 % 0.00 in
18:52 100.1 °F 64.0 °F 29.70 in Calm     31 % 0.00 in
18:57 99.5 °F 62.6 °F 29.70 in NW 1.2 mph 1.2 mph 30 % 0.00 in
19:02 98.9 °F 64.8 °F 29.70 in Calm     33 % 0.00 in
19:07 98.1 °F 65.8 °F 29.70 in Calm     35 % 0.00 in
19:12 97.3 °F 65.1 °F 29.70 in Calm     35 % 0.00 in
19:17 96.8 °F 65.4 °F 29.70 in Calm     36 % 0.00 in
19:22 96.4 °F 65.1 °F 29.70 in Calm     36 % 0.00 in
19:27 96.0 °F 64.7 °F 29.70 in Calm     36 % 0.00 in
19:32 95.5 °F 64.3 °F 29.70 in Calm     36 % 0.00 in
19:37 95.0 °F 65.4 °F 29.70 in Calm     38 % 0.00 in
19:42 94.5 °F 64.2 °F 29.70 in Calm     37 % 0.00 in
19:47 94.1 °F 63.9 °F 29.70 in Calm     37 % 0.00 in
19:52 93.7 °F 65.0 °F 29.70 in Calm     39 % 0.00 in
19:57 93.1 °F 63.7 °F 29.70 in Calm     38 % 0.00 in
20:02 92.5 °F 66.1 °F 29.70 in Calm     42 % 0.00 in
20:07 91.9 °F 64.8 °F 29.70 in Calm     41 % 0.00 in
20:12 91.2 °F 67.5 °F 29.70 in Calm     46 % 0.00 in
20:17 90.6 °F 67.6 °F 29.71 in Calm     47 % 0.00 in
20:22 90.1 °F 68.4 °F 29.71 in Calm     49 % 0.00 in
20:27 89.6 °F 67.9 °F 29.71 in Calm     49 % 0.00 in
20:32 89.2 °F 66.9 °F 29.71 in Calm     48 % 0.00 in
20:37 88.9 °F 68.4 °F 29.71 in Calm     51 % 0.00 in
20:42 88.6 °F 65.8 °F 29.72 in Calm     47 % 0.00 in
20:47 88.5 °F 66.9 °F 29.72 in Calm     49 % 0.00 in
20:52 88.4 °F 66.8 °F 29.72 in Calm     49 % 0.00 in
20:57 88.3 °F 66.1 °F 29.72 in Calm     48 % 0.00 in
21:02 88.1 °F 66.5 °F 29.72 in Calm     49 % 0.00 in
21:07 87.7 °F 68.4 °F 29.72 in Calm     53 % 0.00 in
21:12 87.2 °F 68.0 °F 29.73 in Calm     53 % 0.00 in
21:17 86.9 °F 68.8 °F 29.73 in Calm     55 % 0.00 in
21:22 86.3 °F 69.3 °F 29.73 in Calm     57 % 0.00 in
21:27 86.0 °F 69.5 °F 29.73 in Calm     58 % 0.00 in
21:32 85.7 °F 67.7 °F 29.73 in Calm     55 % 0.00 in
21:37 85.6 °F 67.6 °F 29.73 in Calm     55 % 0.00 in
21:42 85.5 °F 68.0 °F 29.73 in Calm     56 % 0.00 in
21:47 85.2 °F 67.2 °F 29.73 in Calm     55 % 0.00 in
21:52 85.0 °F 68.6 °F 29.74 in Calm     58 % 0.00 in
21:57 84.7 °F 68.8 °F 29.74 in Calm     59 % 0.00 in
22:02 84.4 °F 68.5 °F 29.74 in Calm     59 % 0.00 in
22:07 84.1 °F 68.2 °F 29.74 in Calm     59 % 0.00 in
22:12 83.9 °F 68.0 °F 29.74 in Calm     59 % 0.00 in
22:17 83.7 °F 67.4 °F 29.75 in Calm     58 % 0.00 in
22:22 83.5 °F 68.2 °F 29.75 in Calm     60 % 0.00 in
22:27 83.3 °F 67.0 °F 29.75 in Calm     58 % 0.00 in
22:32 83.2 °F 67.4 °F 29.75 in Calm     59 % 0.00 in
22:37 82.9 °F 68.1 °F 29.75 in Calm     61 % 0.00 in
22:42 82.4 °F 68.5 °F 29.75 in Calm     63 % 0.00 in
22:43 82.4 °F 68.5 °F 29.75 in Calm     63 % 0.00 in
22:48 81.5 °F 68.6 °F 29.75 in Calm     65 % 0.00 in
22:53 80.9 °F 68.9 °F 29.75 in Calm     67 % 0.00 in
22:58 80.4 °F 68.0 °F 29.75 in Calm     66 % 0.00 in
23:03 80.3 °F 67.5 °F 29.74 in SE 1.0 mph   65 % 0.00 in
23:08 80.4 °F 66.6 °F 29.75 in SE 1.2 mph 1.2 mph 63 % 0.00 in
23:13 80.4 °F 66.6 °F 29.75 in Calm     63 % 0.00 in
23:18 80.3 °F 66.6 °F 29.75 in ESE 1.2 mph 1.2 mph 63 % 0.00 in
23:23 80.4 °F 66.2 °F 29.75 in Calm     62 % 0.00 in
23:28 80.3 °F 66.1 °F 29.75 in Calm   0.1 mph 62 % 0.00 in
23:33 80.0 °F 65.3 °F 29.75 in Calm     61 % 0.00 in
23:38 79.8 °F 64.7 °F 29.75 in Calm     60 % 0.00 in
23:43 79.8 °F 64.7 °F 29.75 in SSE 1.0 mph 1.0 mph 60 % 0.00 in
23:48 79.6 °F 65.0 °F 29.75 in Calm     61 % 0.00 in
23:53 79.4 °F 64.3 °F 29.75 in SSE 3.5 mph 3.5 mph 60 % 0.00 in
23:58 79.4 °F 64.3 °F 29.76 in SE 1.0 mph 1.0 mph 60 % 0.00 in
Park Place, Exeter, Tulare County, California, USA
Compliments of Weather Underground - 2.75 mb